Time;durP1;ratioP1;P1;durP2;ratioP2;P2;SDS_P1;SDS_P2;PMS_P1;PMS_P2;Temp;Humidity;BMP_temperature;BMP_pressure;BME280_temperature;BME280_humidity;BME280_pressure;Samples;Min_cycle;Max_cycle;Signal;HPM_P1;HPM_P2
2022/10/15 00:01:08;;;;;;;63.35;26.67;;;14.60;93.30;;;;;;5039840;28;20367;-78
2022/10/15 00:03:35;;;;;;;86.28;26.55;;;14.60;93.30;;;;;;5039946;28;20021;-78
2022/10/15 00:06:10;;;;;;;69.93;26.25;;;14.50;93.20;;;;;;5042463;28;20089;-77
2022/10/15 00:08:36;;;;;;;39.17;22.88;;;14.50;93.20;;;;;;5043083;28;20055;-78
2022/10/15 00:11:04;;;;;;;51.80;21.90;;;14.50;93.20;;;;;;5044692;28;20053;-78
2022/10/15 00:13:29;;;;;;;47.67;24.73;;;14.40;93.20;;;;;;5039791;28;20041;-79
2022/10/15 00:15:55;;;;;;;38.13;22.17;;;14.40;93.20;;;;;;5033006;28;20049;-77
2022/10/15 00:18:22;;;;;;;32.75;21.05;;;14.30;93.10;;;;;;5020359;28;20022;-77
2022/10/15 00:20:47;;;;;;;47.30;22.63;;;14.40;93.10;;;;;;5039164;28;20029;-78
2022/10/15 00:23:13;;;;;;;59.70;21.92;;;14.30;93.10;;;;;;5043607;28;20048;-78
2022/10/15 00:25:41;;;;;;;41.90;21.48;;;14.30;93.10;;;;;;5029023;28;20060;-77
2022/10/15 00:28:06;;;;;;;54.05;20.48;;;14.30;93.10;;;;;;5045811;28;20075;-77
2022/10/15 00:30:32;;;;;;;50.10;19.50;;;14.30;93.00;;;;;;5049762;28;20033;-77
2022/10/15 00:32:58;;;;;;;44.45;20.30;;;14.20;93.00;;;;;;5047873;28;20045;-78
2022/10/15 00:35:24;;;;;;;33.00;20.58;;;14.20;93.00;;;;;;5045220;28;20033;-77
2022/10/15 00:37:49;;;;;;;34.05;19.75;;;14.20;93.00;;;;;;5047903;28;20033;-77
2022/10/15 00:40:20;;;;;;;46.30;19.52;;;14.10;92.90;;;;;;5028907;28;20085;-79
2022/10/15 00:42:47;;;;;;;38.63;18.63;;;14.10;92.90;;;;;;5047727;28;20032;-77
2022/10/15 00:45:14;;;;;;;26.65;17.90;;;14.10;92.80;;;;;;5048152;28;20025;-77
2022/10/15 00:47:42;;;;;;;23.83;18.45;;;14.10;92.80;;;;;;5047534;28;20057;-76
2022/10/15 00:50:22;;;;;;;23.50;17.67;;;14.00;92.70;;;;;;5044952;28;20029;-78
2022/10/15 00:53:01;;;;;;;22.97;18.53;;;14.00;92.70;;;;;;5030669;28;20025;-78
2022/10/15 00:55:31;;;;;;;22.95;18.33;;;14.00;92.60;;;;;;5046652;28;20021;-77
2022/10/15 00:58:06;;;;;;;21.52;17.38;;;13.90;92.60;;;;;;5048851;28;20025;-77
2022/10/15 01:00:32;;;;;;;22.15;16.88;;;13.90;92.50;;;;;;5040725;28;20025;-78
2022/10/15 01:02:58;;;;;;;21.33;16.95;;;13.90;92.50;;;;;;5045443;28;20074;-78
2022/10/15 01:05:24;;;;;;;23.38;17.30;;;13.90;92.50;;;;;;5044411;28;20033;-79
2022/10/15 01:07:49;;;;;;;23.08;17.88;;;13.90;92.50;;;;;;5034052;28;20030;-76
2022/10/15 01:10:16;;;;;;;20.27;15.68;;;13.80;92.50;;;;;;5043075;28;20024;-78
2022/10/15 01:12:56;;;;;;;21.10;16.92;;;13.80;92.40;;;;;;5042334;28;20048;-77
2022/10/15 01:15:46;;;;;;;23.15;17.05;;;13.80;92.40;;;;;;5036566;28;20030;-78
2022/10/15 01:18:14;;;;;;;;;;;13.80;92.50;;;;;;5029148;28;20026;-77
2022/10/15 01:21:06;;;;;;;23.50;17.52;;;13.80;92.40;;;;;;5040612;28;19905;-78
2022/10/15 01:24:21;;;;;;;25.08;19.25;;;13.70;92.40;;;;;;5037841;28;20046;-78
2022/10/15 01:27:09;;;;;;;29.80;21.17;;;13.70;92.60;;;;;;5038118;28;20503;-78
2022/10/15 01:29:52;;;;;;;28.00;20.98;;;13.70;92.80;;;;;;5043496;28;20064;-77
2022/10/15 01:32:27;;;;;;;28.58;20.92;;;13.70;92.90;;;;;;5041705;28;20064;-77
2022/10/15 01:35:13;;;;;;;31.77;23.70;;;13.80;93.00;;;;;;5043414;28;20369;-77
2022/10/15 01:37:52;;;;;;;38.50;27.10;;;13.80;93.20;;;;;;5039594;28;20026;-78
2022/10/15 01:40:25;;;;;;;36.42;24.20;;;13.80;93.30;;;;;;5038175;28;20036;-77
2022/10/15 01:42:57;;;;;;;40.53;29.55;;;13.90;93.50;;;;;;5041449;28;20777;-78
2022/10/15 01:45:35;;;;;;;38.38;27.70;;;13.90;93.90;;;;;;5044535;28;20330;-78
2022/10/15 01:48:08;;;;;;;53.53;34.90;;;13.90;93.70;;;;;;5039499;28;20022;-78
2022/10/15 01:50:37;;;;;;;48.00;31.42;;;13.90;93.80;;;;;;5047391;28;20033;-78
2022/10/15 01:53:05;;;;;;;42.10;29.05;;;13.90;93.90;;;;;;5030553;28;20044;-77
2022/10/15 01:55:36;;;;;;;42.58;29.38;;;14.00;94.00;;;;;;5043905;28;20030;-78
2022/10/15 01:58:03;;;;;;;37.88;28.33;;;14.00;94.00;;;;;;5045478;28;20036;-79
2022/10/15 02:00:31;;;;;;;42.75;29.85;;;14.00;94.00;;;;;;5046441;28;20076;-76
2022/10/15 02:03:00;;;;;;;42.00;28.42;;;14.00;93.90;;;;;;5044376;28;20032;-78
2022/10/15 02:05:33;;;;;;;43.28;29.33;;;14.00;93.90;;;;;;5048389;28;20028;-78
2022/10/15 02:08:22;;;;;;;42.65;28.77;;;14.10;93.90;;;;;;5034518;28;20041;-78
2022/10/15 02:10:55;;;;;;;38.10;26.55;;;14.10;93.90;;;;;;5045427;28;20036;-78
2022/10/15 02:13:27;;;;;;;42.53;29.05;;;14.10;93.80;;;;;;5042724;28;20037;-78
2022/10/15 02:16:13;;;;;;;46.47;29.90;;;14.10;93.80;;;;;;5040827;28;20080;-78
2022/10/15 02:18:43;;;;;;;47.70;30.63;;;14.10;93.90;;;;;;5039732;28;20033;-78
2022/10/15 02:21:13;;;;;;;;;;;14.10;93.80;;;;;;5022170;28;20033;-79
2022/10/15 02:24:16;;;;;;;43.55;29.45;;;14.20;93.80;;;;;;5019872;28;19918;-76
2022/10/15 02:26:43;;;;;;;42.97;29.35;;;14.20;93.80;;;;;;4975275;28;20038;-78
2022/10/15 02:29:15;;;;;;;48.00;32.78;;;14.20;93.80;;;;;;5013484;28;20034;-77
2022/10/15 02:31:45;;;;;;;48.92;31.08;;;14.20;93.80;;;;;;5023478;28;20069;-77
2022/10/15 02:34:24;;;;;;;63.85;38.83;;;14.20;93.80;;;;;;5022265;28;20037;-78
2022/10/15 02:36:51;;;;;;;50.42;33.47;;;14.20;93.90;;;;;;5013044;28;20085;-78
2022/10/15 02:39:24;;;;;;;42.35;26.85;;;14.20;93.90;;;;;;5025904;28;20025;-78
2022/10/15 02:41:53;;;;;;;47.08;31.73;;;14.20;93.80;;;;;;5028627;28;20455;-78
2022/10/15 02:44:19;;;;;;;47.80;29.92;;;14.20;93.80;;;;;;5026721;28;20053;-78
2022/10/15 02:46:46;;;;;;;42.60;28.67;;;14.20;93.70;;;;;;5022955;28;20034;-77
2022/10/15 02:49:12;;;;;;;43.85;28.35;;;14.10;93.70;;;;;;5013515;28;20385;-78
2022/10/15 02:51:37;;;;;;;40.22;27.40;;;14.20;93.70;;;;;;5021286;28;20109;-77
2022/10/15 02:54:05;;;;;;;40.67;26.98;;;14.10;93.60;;;;;;5020227;28;20615;-77
2022/10/15 02:56:31;;;;;;;47.45;28.98;;;14.20;93.60;;;;;;5020448;28;20044;-78
2022/10/15 02:58:57;;;;;;;44.92;29.02;;;14.10;93.50;;;;;;5020215;28;20022;-78
2022/10/15 03:01:23;;;;;;;42.40;29.10;;;14.20;93.50;;;;;;5019294;28;20026;-78
2022/10/15 03:03:49;;;;;;;41.78;28.35;;;14.20;93.50;;;;;;5015517;28;20112;-78
2022/10/15 03:06:15;;;;;;;43.15;29.20;;;14.20;93.40;;;;;;5010004;28;20050;-77
2022/10/15 03:08:41;;;;;;;44.35;29.25;;;14.20;93.40;;;;;;5011389;28;20018;-78
2022/10/15 03:11:08;;;;;;;45.28;29.17;;;14.10;93.30;;;;;;5023637;28;20032;-77
2022/10/15 03:13:38;;;;;;;41.90;30.15;;;14.10;93.20;;;;;;5017706;28;20064;-77
2022/10/15 03:16:05;;;;;;;42.83;28.00;;;14.10;93.20;;;;;;5024797;28;20034;-78
2022/10/15 03:18:31;;;;;;;40.83;27.55;;;14.10;93.10;;;;;;5026141;28;20026;-78
2022/10/15 03:20:58;;;;;;;39.90;27.25;;;14.10;93.00;;;;;;5016616;28;20044;-77
2022/10/15 03:23:23;;;;;;;41.90;27.95;;;14.00;93.00;;;;;;5040451;28;20049;-76
2022/10/15 03:25:51;;;;;;;41.42;27.17;;;14.00;93.00;;;;;;5040099;28;20028;-78
2022/10/15 03:28:16;;;;;;;43.03;28.45;;;14.00;93.00;;;;;;5042867;28;20531;-78
2022/10/15 03:30:42;;;;;;;45.28;29.63;;;14.00;93.00;;;;;;5040344;28;20127;-77
2022/10/15 03:33:08;;;;;;;42.15;29.05;;;14.00;93.10;;;;;;5037457;28;20120;-78
2022/10/15 03:35:34;;;;;;;44.72;29.80;;;14.00;93.10;;;;;;5035637;28;20049;-78
2022/10/15 03:38:01;;;;;;;46.00;29.70;;;14.00;93.20;;;;;;5039897;28;20018;-77
2022/10/15 03:40:27;;;;;;;45.13;30.67;;;14.00;93.20;;;;;;5044602;28;20026;-78
2022/10/15 03:42:53;;;;;;;47.47;30.33;;;14.00;93.30;;;;;;5044986;28;20060;-78
2022/10/15 03:45:22;;;;;;;49.95;32.47;;;14.00;93.30;;;;;;5046100;28;20116;-78
2022/10/15 03:47:48;;;;;;;50.00;32.17;;;14.00;93.40;;;;;;5036159;28;20035;-77
2022/10/15 03:50:14;;;;;;;43.47;29.30;;;14.10;93.40;;;;;;5042836;28;20073;-78
2022/10/15 03:52:41;;;;;;;52.88;33.90;;;14.10;93.50;;;;;;5028276;28;20028;-78
2022/10/15 03:55:08;;;;;;;51.58;34.17;;;14.10;93.60;;;;;;5039035;28;20029;-78
2022/10/15 03:57:34;;;;;;;53.60;32.95;;;14.10;93.60;;;;;;5046015;28;20083;-77
2022/10/15 04:00:00;;;;;;;50.70;32.88;;;14.10;93.70;;;;;;5050849;28;20025;-77
2022/10/15 04:02:26;;;;;;;54.63;33.13;;;14.10;93.80;;;;;;5050898;28;20024;-76
2022/10/15 04:04:53;;;;;;;52.35;34.92;;;14.10;93.80;;;;;;5050597;28;20033;-77
2022/10/15 04:07:19;;;;;;;56.13;35.67;;;14.20;93.80;;;;;;5052035;28;20025;-77
2022/10/15 04:09:46;;;;;;;50.88;33.47;;;14.20;93.90;;;;;;5047995;28;20021;-77
2022/10/15 04:12:13;;;;;;;52.13;31.48;;;14.20;93.90;;;;;;5047358;28;20604;-78
2022/10/15 04:14:39;;;;;;;53.95;33.85;;;14.20;94.00;;;;;;5035599;28;20045;-78
2022/10/15 04:17:06;;;;;;;50.13;32.38;;;14.20;93.90;;;;;;5039463;28;20025;-77
2022/10/15 04:19:31;;;;;;;49.08;32.58;;;14.20;93.90;;;;;;5048579;28;20093;-77
2022/10/15 04:21:57;;;;;;;51.45;30.95;;;14.20;93.90;;;;;;5047647;28;20072;-77
2022/10/15 04:24:22;;;;;;;46.05;31.63;;;14.20;93.90;;;;;;5036310;28;20017;-79
2022/10/15 04:26:50;;;;;;;48.40;32.35;;;14.30;93.90;;;;;;5044027;28;20043;-78
2022/10/15 04:29:16;;;;;;;54.15;32.17;;;14.20;93.90;;;;;;5045258;28;20053;-78
2022/10/15 04:31:42;;;;;;;47.58;32.22;;;14.30;93.90;;;;;;5046238;28;20060;-77
2022/10/15 04:34:08;;;;;;;43.50;29.23;;;14.30;93.80;;;;;;5047662;28;20029;-75
2022/10/15 04:36:34;;;;;;;48.33;32.20;;;14.20;93.80;;;;;;5049045;28;20022;-77
2022/10/15 04:39:00;;;;;;;47.42;29.83;;;14.30;93.80;;;;;;5042480;28;20026;-77
2022/10/15 04:41:26;;;;;;;51.60;31.35;;;14.30;93.80;;;;;;5047260;28;20028;-78
2022/10/15 04:43:52;;;;;;;49.85;32.63;;;14.30;93.90;;;;;;5052363;28;20025;-78
2022/10/15 04:46:21;;;;;;;45.65;31.90;;;14.30;93.90;;;;;;5048276;28;20112;-76
2022/10/15 04:48:47;;;;;;;45.72;30.05;;;14.30;93.90;;;;;;5048550;28;20009;-75
2022/10/15 04:51:18;;;;;;;46.53;31.60;;;14.30;93.90;;;;;;5050953;28;20017;-77
2022/10/15 04:53:45;;;;;;;47.22;30.02;;;14.30;93.90;;;;;;5050083;28;20029;-77
2022/10/15 04:56:16;;;;;;;47.85;31.63;;;14.30;93.90;;;;;;5049536;28;20026;-76
2022/10/15 04:58:45;;;;;;;46.03;31.00;;;14.30;93.90;;;;;;5050336;28;20029;-76
2022/10/15 05:01:13;;;;;;;48.55;31.88;;;14.30;93.90;;;;;;5046948;28;20002;-77
2022/10/15 05:03:41;;;;;;;47.30;32.47;;;14.30;93.90;;;;;;5049171;28;20091;-77
2022/10/15 05:06:09;;;;;;;44.38;29.27;;;14.30;93.90;;;;;;5051429;28;20049;-76
2022/10/15 05:08:36;;;;;;;41.47;28.85;;;14.30;93.90;;;;;;5049726;28;20036;-77
2022/10/15 05:11:10;;;;;;;46.00;31.95;;;14.30;93.90;;;;;;5053730;28;20033;-77
2022/10/15 05:13:38;;;;;;;41.50;29.10;;;14.30;93.90;;;;;;5051649;28;20029;-76
2022/10/15 05:16:14;;;;;;;48.97;33.63;;;14.40;94.00;;;;;;5049996;28;20048;-76
2022/10/15 05:18:42;;;;;;;45.58;31.35;;;14.30;94.10;;;;;;5047819;28;20018;-76
2022/10/15 05:21:08;;;;;;;48.53;31.50;;;14.40;94.10;;;;;;5045799;28;20022;-77
2022/10/15 05:23:35;;;;;;;50.10;34.33;;;14.40;94.20;;;;;;5051346;28;20073;-76
2022/10/15 05:26:03;;;;;;;46.90;33.45;;;14.40;94.20;;;;;;5048397;28;20041;-77
2022/10/15 05:28:29;;;;;;;48.17;32.53;;;14.40;94.20;;;;;;5030963;28;20022;-77
2022/10/15 05:30:56;;;;;;;50.65;36.08;;;14.40;94.30;;;;;;5050378;28;20076;-77
2022/10/15 05:33:23;;;;;;;52.55;36.08;;;14.40;94.40;;;;;;5048076;28;20052;-76
2022/10/15 05:35:49;;;;;;;53.70;36.97;;;14.50;94.50;;;;;;5047070;28;20021;-76
2022/10/15 05:38:15;;;;;;;61.05;38.97;;;14.50;94.60;;;;;;5046814;28;20048;-77
2022/10/15 05:40:40;;;;;;;51.25;38.90;;;14.50;95.00;;;;;;5048713;28;20048;-77
2022/10/15 05:43:06;;;;;;;56.63;39.13;;;14.40;94.90;;;;;;5048750;28;20028;-77
2022/10/15 05:45:32;;;;;;;52.15;36.70;;;14.40;95.00;;;;;;5029919;28;20030;-79
2022/10/15 05:47:58;;;;;;;46.35;33.85;;;14.40;95.10;;;;;;5029464;28;20045;-77
2022/10/15 05:50:25;;;;;;;56.13;38.78;;;14.40;95.20;;;;;;5049429;28;20037;-76
2022/10/15 05:52:53;;;;;;;53.28;39.30;;;14.40;95.20;;;;;;5048164;28;20052;-76
2022/10/15 05:55:20;;;;;;;57.45;38.33;;;14.40;95.30;;;;;;5045787;28;20108;-78
2022/10/15 05:57:46;;;;;;;57.50;39.50;;;14.40;95.40;;;;;;5045385;28;20088;-76
2022/10/15 06:00:12;;;;;;;48.17;31.63;;;14.40;95.50;;;;;;5043856;28;20049;-77
2022/10/15 06:02:38;;;;;;;56.58;39.47;;;14.40;95.40;;;;;;5050038;28;20040;-77
2022/10/15 06:05:05;;;;;;;56.05;38.15;;;14.40;95.50;;;;;;5042180;28;20025;-75
2022/10/15 06:07:31;;;;;;;68.60;45.70;;;14.40;95.50;;;;;;5032029;28;20026;-77
2022/10/15 06:09:56;;;;;;;39.28;29.73;;;14.30;95.50;;;;;;5042180;28;20060;-76
2022/10/15 06:12:22;;;;;;;66.07;42.28;;;14.40;95.50;;;;;;5045458;28;20051;-75
2022/10/15 06:14:48;;;;;;;53.10;37.47;;;14.30;95.40;;;;;;5044021;28;20399;-77
2022/10/15 06:17:13;;;;;;;45.15;33.15;;;14.30;95.60;;;;;;5043098;28;20037;-76
2022/10/15 06:19:40;;;;;;;64.03;42.85;;;14.30;95.70;;;;;;5048360;28;20030;-76
2022/10/15 06:22:05;;;;;;;53.08;36.42;;;14.30;95.40;;;;;;5046180;28;20101;-77
2022/10/15 06:24:31;;;;;;;18.83;12.77;;;14.30;95.30;;;;;;5045197;28;20033;-77
2022/10/15 06:26:58;;;;;;;50.85;34.85;;;14.30;93.70;;;;;;5046726;28;20039;-76
2022/10/15 06:29:24;;;;;;;51.03;33.60;;;14.30;94.50;;;;;;5045816;28;20089;-76
2022/10/15 06:31:50;;;;;;;49.40;34.05;;;14.30;95.10;;;;;;5046479;28;20040;-77
2022/10/15 06:34:16;;;;;;;44.42;32.45;;;14.30;95.40;;;;;;5041428;28;20025;-77
2022/10/15 06:36:44;;;;;;;48.08;33.08;;;14.30;95.80;;;;;;5041177;28;20029;-77
2022/10/15 06:39:11;;;;;;;61.72;38.25;;;14.30;95.90;;;;;;5043905;28;20076;-77
2022/10/15 06:41:37;;;;;;;58.13;38.10;;;14.30;96.10;;;;;;5045444;28;20025;-76
2022/10/15 06:44:03;;;;;;;60.92;38.20;;;14.30;96.10;;;;;;5046924;28;20069;-77
2022/10/15 06:46:28;;;;;;;94.63;43.70;;;14.30;96.10;;;;;;5047787;28;20048;-75
2022/10/15 06:48:54;;;;;;;44.40;28.40;;;14.40;96.30;;;;;;5044707;28;20040;-77
2022/10/15 06:51:20;;;;;;;75.20;42.63;;;14.40;96.00;;;;;;5043826;28;20020;-78
2022/10/15 06:53:49;;;;;;;51.75;32.40;;;14.40;96.10;;;;;;5025749;28;20033;-76
2022/10/15 06:56:14;;;;;;;49.63;32.00;;;14.40;96.20;;;;;;5033670;28;20018;-76
2022/10/15 06:58:42;;;;;;;48.00;29.83;;;14.40;96.40;;;;;;5042896;28;20037;-77
2022/10/15 07:01:09;;;;;;;43.00;29.02;;;14.40;96.00;;;;;;5041176;28;20089;-77
2022/10/15 07:03:43;;;;;;;36.58;23.73;;;14.50;96.10;;;;;;5044566;28;20030;-77
2022/10/15 07:06:09;;;;;;;45.83;30.98;;;14.50;95.70;;;;;;5042649;28;20013;-77
2022/10/15 07:08:40;;;;;;;36.58;25.10;;;14.50;95.90;;;;;;5043962;28;20040;-77
2022/10/15 07:11:08;;;;;;;45.95;29.58;;;14.50;96.00;;;;;;5042169;28;20029;-77
2022/10/15 07:13:34;;;;;;;32.80;24.13;;;14.60;96.40;;;;;;5045898;28;20057;-78
2022/10/15 07:16:08;;;;;;;43.33;28.70;;;14.60;96.00;;;;;;5045757;28;20016;-78
2022/10/15 07:18:34;;;;;;;47.65;30.73;;;14.60;96.00;;;;;;5044481;28;20516;-77
2022/10/15 07:21:00;;;;;;;35.75;23.10;;;14.60;95.70;;;;;;5040407;28;20033;-76
2022/10/15 07:23:27;;;;;;;45.95;29.08;;;14.70;95.40;;;;;;5036213;28;20120;-76
2022/10/15 07:25:53;;;;;;;56.42;33.60;;;14.60;95.20;;;;;;5034572;28;20022;-77
2022/10/15 07:28:19;;;;;;;47.88;30.42;;;14.60;95.70;;;;;;5041009;28;20101;-74
2022/10/15 07:30:44;;;;;;;36.95;23.80;;;14.60;95.60;;;;;;5041925;28;20029;-77
2022/10/15 07:33:10;;;;;;;29.85;21.88;;;14.70;95.90;;;;;;5040814;28;20037;-76
2022/10/15 07:35:36;;;;;;;28.63;19.20;;;14.70;95.90;;;;;;5035107;28;20026;-76
2022/10/15 07:38:03;;;;;;;33.28;20.38;;;14.70;95.90;;;;;;5029469;28;20033;-75
2022/10/15 07:40:31;;;;;;;33.85;22.38;;;14.70;95.60;;;;;;5034780;28;20096;-76
2022/10/15 07:42:58;;;;;;;28.55;19.85;;;14.70;95.50;;;;;;5040106;28;20021;-77
2022/10/15 07:45:24;;;;;;;39.03;26.92;;;14.80;95.30;;;;;;5035627;28;20022;-77
2022/10/15 07:47:50;;;;;;;30.42;22.92;;;14.80;95.50;;;;;;5032405;28;20030;-78
2022/10/15 07:50:22;;;;;;;32.10;20.33;;;14.90;95.40;;;;;;5043901;28;20041;-77
2022/10/15 07:52:48;;;;;;;31.83;22.48;;;14.90;95.00;;;;;;5037565;28;20045;-78
2022/10/15 07:55:13;;;;;;;23.13;17.35;;;14.90;95.10;;;;;;5040807;28;20010;-77
2022/10/15 07:57:39;;;;;;;35.25;24.45;;;14.90;94.80;;;;;;5039544;28;20104;-77
2022/10/15 08:00:07;;;;;;;30.75;20.42;;;14.90;94.90;;;;;;5042184;28;20021;-78
2022/10/15 08:02:34;;;;;;;28.02;19.42;;;15.00;94.80;;;;;;5042137;28;20030;-76
2022/10/15 08:05:03;;;;;;;31.98;22.20;;;15.00;94.80;;;;;;5040555;28;20312;-76
2022/10/15 08:07:28;;;;;;;36.00;24.70;;;15.00;94.50;;;;;;5039429;28;20021;-77
2022/10/15 08:09:54;;;;;;;30.42;20.35;;;15.00;94.80;;;;;;5035668;28;20064;-77
2022/10/15 08:12:19;;;;;;;40.70;28.08;;;15.10;94.90;;;;;;5040748;28;20069;-78
2022/10/15 08:14:45;;;;;;;32.38;22.58;;;15.10;95.10;;;;;;5022002;28;20053;-78
2022/10/15 08:17:11;;;;;;;30.50;21.90;;;15.20;94.70;;;;;;5039480;28;20021;-74
2022/10/15 08:19:37;;;;;;;28.08;20.33;;;15.20;94.80;;;;;;5042748;28;20097;-76
2022/10/15 08:22:03;;;;;;;32.88;23.98;;;15.20;94.70;;;;;;5047364;28;21131;-77
2022/10/15 08:24:29;;;;;;;33.50;24.27;;;15.30;94.80;;;;;;5023447;28;20148;-77
2022/10/15 08:26:57;;;;;;;27.13;20.20;;;15.40;95.00;;;;;;5038587;28;20029;-76
2022/10/15 08:29:23;;;;;;;34.53;25.90;;;15.50;94.80;;;;;;5037447;28;20029;-77
2022/10/15 08:31:49;;;;;;;33.80;24.30;;;15.50;94.70;;;;;;5035366;28;20029;-78
2022/10/15 08:34:15;;;;;;;28.58;22.35;;;15.70;95.50;;;;;;5039337;28;20144;-78
2022/10/15 08:36:41;;;;;;;30.83;22.50;;;15.90;95.70;;;;;;5028956;28;20140;-76
2022/10/15 08:39:08;;;;;;;20.23;15.63;;;16.30;94.90;;;;;;5028188;28;20117;-76
2022/10/15 08:41:56;;;;;;;23.77;18.70;;;16.60;93.70;;;;;;5029685;28;20030;-76
2022/10/15 08:44:44;;;;;;;16.52;13.20;;;16.80;93.30;;;;;;5031362;28;20037;-75
2022/10/15 08:47:27;;;;;;;21.35;16.70;;;16.90;92.00;;;;;;5031899;28;20017;-75
2022/10/15 08:49:57;;;;;;;15.38;12.52;;;16.90;91.70;;;;;;5032290;28;20111;-76
2022/10/15 08:52:37;;;;;;;19.92;13.50;;;16.90;91.40;;;;;;5028760;28;20555;-75
2022/10/15 08:55:03;;;;;;;21.55;15.60;;;16.90;91.20;;;;;;5028094;28;20467;-76
2022/10/15 08:57:59;;;;;;;21.98;16.45;;;16.80;91.30;;;;;;5032080;28;20494;-76
2022/10/15 09:00:29;;;;;;;19.45;15.38;;;16.90;91.30;;;;;;5009646;28;20164;-75
2022/10/15 09:03:29;;;;;;;12.82;9.77;;;16.90;91.20;;;;;;5033380;28;20056;-75
2022/10/15 09:06:27;;;;;;;13.10;10.00;;;17.10;90.00;;;;;;5034657;28;20443;-76
2022/10/15 09:09:38;;;;;;;15.05;11.43;;;17.10;88.30;;;;;;5008452;28;20065;-75
2022/10/15 09:12:40;;;;;;;21.77;16.55;;;17.10;89.00;;;;;;5034771;28;20063;-76
2022/10/15 09:15:12;;;;;;;14.43;10.85;;;17.10;90.50;;;;;;5033196;28;20453;-76
2022/10/15 09:17:40;;;;;;;14.13;10.30;;;17.10;90.00;;;;;;5036657;28;20037;-76
2022/10/15 09:20:13;;;;;;;22.33;17.92;;;17.10;90.00;;;;;;5034080;28;20025;-75
2022/10/15 09:22:39;;;;;;;13.93;9.45;;;17.10;90.50;;;;;;5035699;28;20416;-77
2022/10/15 09:25:14;;;;;;;24.10;18.17;;;17.20;89.40;;;;;;5031556;28;20026;-75
2022/10/15 09:27:40;;;;;;;24.98;18.35;;;17.10;89.70;;;;;;5007740;28;20145;-74
2022/10/15 09:30:24;;;;;;;14.25;11.07;;;17.10;90.80;;;;;;5032327;28;20077;-76
2022/10/15 09:33:07;;;;;;;16.42;12.27;;;17.10;90.50;;;;;;5032272;28;20048;-75
2022/10/15 09:35:44;;;;;;;21.05;16.00;;;17.00;90.60;;;;;;5019548;28;20099;-76
2022/10/15 09:38:16;;;;;;;17.63;12.82;;;17.00;90.60;;;;;;5006981;28;20079;-74
2022/10/15 09:41:03;;;;;;;21.73;16.02;;;17.00;90.20;;;;;;5029825;28;20025;-75
2022/10/15 09:43:34;;;;;;;21.00;15.57;;;17.00;91.30;;;;;;5027257;28;20038;-75
2022/10/15 09:46:02;;;;;;;17.60;12.40;;;16.90;91.50;;;;;;5029715;28;20040;-74
2022/10/15 09:48:32;;;;;;;14.93;10.82;;;16.90;90.80;;;;;;5031951;28;20029;-74
2022/10/15 09:51:05;;;;;;;18.65;14.93;;;17.00;90.10;;;;;;5031976;28;20064;-75
2022/10/15 09:53:58;;;;;;;17.92;11.45;;;17.00;90.20;;;;;;5031479;28;20029;-75
2022/10/15 09:56:50;;;;;;;16.88;12.95;;;17.00;91.10;;;;;;5031331;28;20109;-75
2022/10/15 09:59:19;;;;;;;15.07;10.80;;;17.00;90.60;;;;;;5031256;28;20046;-75
2022/10/15 10:01:59;;;;;;;16.55;11.88;;;17.10;90.40;;;;;;5024773;28;20025;-74
2022/10/15 10:04:29;;;;;;;20.85;12.48;;;17.00;91.30;;;;;;5029917;28;20053;-75
2022/10/15 10:07:00;;;;;;;;;;;17.00;91.30;;;;;;5033988;28;20021;-75
2022/10/15 10:09:49;;;;;;;12.77;8.65;;;17.00;90.80;;;;;;5017436;28;19912;-75
2022/10/15 10:12:21;;;;;;;9.52;5.53;;;17.00;90.60;;;;;;5031207;28;20073;-75
2022/10/15 10:14:59;;;;;;;11.98;8.52;;;16.90;89.40;;;;;;5030059;28;20496;-76
2022/10/15 10:17:26;;;;;;;14.18;9.65;;;16.90;90.20;;;;;;5031029;28;20021;-75
2022/10/15 10:20:17;;;;;;;12.95;8.95;;;16.90;91.10;;;;;;5031786;28;20334;-76
2022/10/15 10:22:48;;;;;;;16.80;11.73;;;16.90;91.60;;;;;;5034993;28;20474;-77
2022/10/15 10:25:26;;;;;;;17.70;12.68;;;16.90;92.30;;;;;;5017085;28;20033;-76
2022/10/15 10:27:53;;;;;;;17.55;11.63;;;16.90;92.10;;;;;;5003515;28;20030;-77
2022/10/15 10:30:19;;;;;;;22.35;14.70;;;16.90;92.60;;;;;;5022100;28;20116;-75
2022/10/15 10:32:45;;;;;;;19.88;14.68;;;16.90;92.40;;;;;;5028624;28;20148;-77
2022/10/15 10:35:23;;;;;;;17.65;12.25;;;16.90;92.70;;;;;;5033508;28;20029;-77
2022/10/15 10:37:49;;;;;;;13.70;9.75;;;16.80;92.30;;;;;;5020801;28;20060;-76
2022/10/15 10:40:26;;;;;;;19.60;13.13;;;16.70;92.90;;;;;;5026682;28;20078;-77
2022/10/15 10:43:18;;;;;;;18.63;11.68;;;16.70;93.70;;;;;;5003955;28;20029;-76
2022/10/15 10:45:56;;;;;;;16.23;10.93;;;16.70;93.70;;;;;;5028245;28;20040;-75
2022/10/15 10:48:25;;;;;;;16.25;11.70;;;16.70;93.50;;;;;;5020782;28;20519;-79
2022/10/15 10:51:15;;;;;;;21.98;13.95;;;16.70;93.30;;;;;;5028554;28;20040;-78
2022/10/15 10:53:47;;;;;;;;;;;16.70;93.30;;;;;;5028713;28;20037;-80
2022/10/15 10:56:14;;;;;;;21.95;14.60;;;16.60;93.50;;;;;;5039390;28;20363;-78
2022/10/15 10:58:40;;;;;;;20.73;14.90;;;16.50;94.50;;;;;;5018152;28;20633;-76
2022/10/15 11:01:11;;;;;;;20.90;15.02;;;16.40;94.70;;;;;;5029520;28;20040;-78
2022/10/15 11:03:44;;;;;;;20.52;13.48;;;16.50;93.30;;;;;;5038302;28;20037;-79
2022/10/15 11:06:17;;;;;;;18.40;13.95;;;16.50;93.10;;;;;;5029341;28;20025;-77
2022/10/15 11:09:00;;;;;;;20.15;12.98;;;16.50;92.90;;;;;;5032807;28;20068;-76
2022/10/15 11:11:53;;;;;;;16.30;10.40;;;16.50;93.90;;;;;;5034901;28;20033;-75
2022/10/15 11:14:48;;;;;;;18.80;10.80;;;16.50;93.50;;;;;;5035096;28;20032;-78
2022/10/15 11:17:20;;;;;;;11.88;7.03;;;16.40;93.50;;;;;;5026666;28;20036;-79
2022/10/15 11:19:54;;;;;;;14.30;8.50;;;16.40;93.10;;;;;;5006634;28;20052;-77
2022/10/15 11:22:37;;;;;;;12.60;8.27;;;16.30;92.60;;;;;;5035295;28;20045;-77
2022/10/15 11:25:28;;;;;;;12.30;8.00;;;16.30;92.70;;;;;;5034305;28;20404;-76
2022/10/15 11:28:13;;;;;;;17.08;10.00;;;16.30;93.20;;;;;;5015424;28;20114;-76
2022/10/15 11:31:11;;;;;;;20.30;12.25;;;16.30;94.20;;;;;;5034538;28;20033;-77
2022/10/15 11:33:49;;;;;;;20.70;12.80;;;16.30;95.10;;;;;;5026469;28;20064;-75
2022/10/15 11:36:41;;;;;;;10.82;7.50;;;16.30;95.30;;;;;;5014051;28;21309;-74
2022/10/15 11:39:34;;;;;;;17.77;11.82;;;16.40;94.00;;;;;;5019300;28;20089;-78
2022/10/15 11:42:11;;;;;;;12.50;8.80;;;16.40;94.30;;;;;;5033264;28;20033;-78
2022/10/15 11:44:52;;;;;;;8.65;4.53;;;16.40;94.80;;;;;;5037236;28;20030;-78
2022/10/15 11:47:36;;;;;;;10.88;7.18;;;16.40;93.00;;;;;;5017085;28;20040;-77
2022/10/15 11:50:40;;;;;;;10.52;7.25;;;16.50;92.90;;;;;;5034470;28;20528;-77
2022/10/15 11:53:43;;;;;;;8.73;6.13;;;16.50;93.20;;;;;;5034005;28;20056;-78
2022/10/15 11:56:22;;;;;;;9.82;5.88;;;16.50;93.40;;;;;;5036946;28;20546;-78
2022/10/15 11:59:08;;;;;;;6.35;4.00;;;16.60;93.40;;;;;;5035736;28;20037;-79
2022/10/15 12:01:51;;;;;;;11.98;6.18;;;16.60;92.80;;;;;;5023077;28;20060;-77
2022/10/15 12:04:39;;;;;;;8.80;4.78;;;16.60;92.80;;;;;;5041869;28;20068;-77
2022/10/15 12:07:10;;;;;;;5.78;2.83;;;16.60;92.40;;;;;;5040486;28;20044;-79
2022/10/15 12:09:41;;;;;;;9.35;3.85;;;16.70;91.60;;;;;;5035938;28;20025;-79
2022/10/15 12:12:25;;;;;;;7.10;2.97;;;16.70;91.60;;;;;;5019438;28;20018;-79
2022/10/15 12:15:29;;;;;;;5.85;3.00;;;16.60;91.10;;;;;;5034850;28;20036;-79
2022/10/15 12:18:07;;;;;;;6.72;3.42;;;16.70;91.20;;;;;;5039797;28;20021;-77
2022/10/15 12:20:33;;;;;;;6.15;2.53;;;16.70;91.20;;;;;;5045086;28;20030;-78
2022/10/15 12:23:01;;;;;;;5.18;2.22;;;16.70;90.90;;;;;;5042194;28;20060;-77
2022/10/15 12:25:35;;;;;;;6.28;2.75;;;16.70;90.90;;;;;;5045770;28;20033;-78
2022/10/15 12:28:01;;;;;;;6.05;3.00;;;16.80;90.90;;;;;;5047780;28;20026;-77
2022/10/15 12:30:33;;;;;;;6.90;3.90;;;16.80;91.10;;;;;;5048279;28;20056;-78
2022/10/15 12:33:00;;;;;;;6.05;2.90;;;16.80;92.00;;;;;;5041398;28;20044;-76
2022/10/15 12:35:37;;;;;;;5.05;3.13;;;16.90;92.20;;;;;;5039624;28;20112;-75
2022/10/15 12:38:33;;;;;;;5.20;2.90;;;16.90;92.10;;;;;;5033884;28;20140;-75
2022/10/15 12:41:11;;;;;;;5.07;2.75;;;16.90;91.90;;;;;;5037203;28;20089;-77
2022/10/15 12:43:44;;;;;;;3.80;2.00;;;17.00;90.90;;;;;;5035298;28;20047;-76
2022/10/15 12:46:12;;;;;;;8.07;4.53;;;17.00;90.90;;;;;;5027355;28;20026;-78
2022/10/15 12:48:45;;;;;;;4.53;2.72;;;17.00;91.90;;;;;;5043283;28;20056;-75
2022/10/15 12:51:23;;;;;;;4.53;3.03;;;17.10;91.90;;;;;;5036265;28;20022;-77
2022/10/15 12:53:50;;;;;;;6.18;4.18;;;17.10;92.40;;;;;;5024920;28;20074;-76